createdAt,value
2017-10-25T00:00:20.246Z,57.28
2017-10-25T00:02:46.015Z,57.76
2017-10-25T00:05:12.681Z,57.95
2017-10-25T00:07:38.423Z,57.22
2017-10-25T00:10:04.154Z,57.62
2017-10-25T00:12:30.569Z,57.96
2017-10-25T00:14:56.358Z,57.39
2017-10-25T00:17:22.090Z,57.55
2017-10-25T00:19:47.827Z,57.92
2017-10-25T00:22:13.560Z,58.27
2017-10-25T00:24:39.299Z,57.41
2017-10-25T00:27:05.036Z,57.83
2017-10-25T00:29:30.770Z,57.98
2017-10-25T00:31:56.582Z,58.00
2017-10-25T00:34:22.307Z,57.97
2017-10-25T00:36:48.947Z,57.98
2017-10-25T00:39:14.691Z,57.73
2017-10-25T00:41:40.435Z,57.63
2017-10-25T00:44:06.164Z,58.04
2017-10-25T00:46:31.903Z,58.15
2017-10-25T00:48:57.636Z,57.63
2017-10-25T00:51:23.367Z,57.57
2017-10-25T00:53:49.103Z,58.27
2017-10-25T00:56:14.860Z,58.45
2017-10-25T00:58:40.731Z,58.27
2017-10-25T01:01:06.477Z,58.31
2017-10-25T01:03:32.252Z,58.31
2017-10-25T01:05:58.035Z,58.56
2017-10-25T01:08:23.776Z,58.59
2017-10-25T01:10:49.512Z,58.48
2017-10-25T01:13:15.254Z,58.00
2017-10-25T01:15:40.995Z,58.49
2017-10-25T01:18:06.735Z,58.35
2017-10-25T01:20:32.551Z,58.13
2017-10-25T01:22:58.337Z,58.49
2017-10-25T01:25:24.911Z,58.54
2017-10-25T01:27:50.699Z,58.31
2017-10-25T01:30:16.441Z,58.00
2017-10-25T01:32:43.020Z,58.21
2017-10-25T01:35:09.735Z,58.34
2017-10-25T01:37:36.518Z,58.31
2017-10-25T01:40:02.254Z,58.45
2017-10-25T01:42:28.033Z,58.59
2017-10-25T01:44:54.730Z,58.13
2017-10-25T01:47:20.466Z,58.11
2017-10-25T01:49:47.287Z,57.98
2017-10-25T01:52:14.503Z,58.48
2017-10-25T01:54:41.256Z,58.52
2017-10-25T01:57:06.985Z,57.99
2017-10-25T01:59:32.719Z,58.59
2017-10-25T02:01:58.465Z,58.63
2017-10-25T02:04:25.188Z,58.19
2017-10-25T02:06:50.930Z,58.11
2017-10-25T02:09:17.715Z,58.78
2017-10-25T02:11:43.455Z,58.35
2017-10-25T02:14:09.199Z,58.63
2017-10-25T02:16:35.988Z,58.47
2017-10-25T02:19:02.660Z,58.31
2017-10-25T02:21:28.470Z,58.35
2017-10-25T02:23:55.148Z,58.51
2017-10-25T02:26:21.900Z,57.92
2017-10-25T02:28:47.635Z,58.54
2017-10-25T02:31:14.348Z,58.31
2017-10-25T02:33:41.068Z,58.66
2017-10-25T02:36:07.766Z,58.64
2017-10-25T02:38:34.440Z,58.94
2017-10-25T02:41:02.161Z,58.62
2017-10-25T02:43:28.883Z,58.56
2017-10-25T02:45:54.615Z,58.99
2017-10-25T02:48:20.384Z,58.75
2017-10-25T02:50:46.161Z,58.72
2017-10-25T02:53:12.749Z,58.52
2017-10-25T02:55:38.483Z,58.01
2017-10-25T02:58:09.361Z,58.50
2017-10-25T03:00:35.096Z,59.10
2017-10-25T03:03:01.838Z,58.82
2017-10-25T03:05:28.439Z,58.67
2017-10-25T03:07:54.184Z,58.60
2017-10-25T03:10:19.920Z,58.27
2017-10-25T03:12:45.659Z,58.80
2017-10-25T03:15:12.501Z,58.66
2017-10-25T03:17:39.246Z,58.58
2017-10-25T03:20:04.987Z,58.78
2017-10-25T03:22:31.887Z,58.66
2017-10-25T03:24:58.435Z,58.86
2017-10-25T03:27:25.127Z,58.39
2017-10-25T03:29:51.695Z,58.44
2017-10-25T03:32:17.496Z,58.69
2017-10-25T03:34:44.202Z,58.79
2017-10-25T03:37:10.778Z,58.20
2017-10-25T03:39:36.510Z,58.30
2017-10-25T03:42:02.243Z,58.79
2017-10-25T03:44:28.800Z,58.39
2017-10-25T03:46:54.536Z,58.00
2017-10-25T03:49:21.202Z,57.51
2017-10-25T03:51:46.936Z,57.44
2017-10-25T03:54:13.658Z,57.26
2017-10-25T03:56:39.408Z,57.35
2017-10-25T03:59:05.185Z,57.35
2017-10-25T04:01:32.720Z,57.18
2017-10-25T04:03:58.459Z,57.83
2017-10-25T04:06:24.193Z,57.46
2017-10-25T04:08:49.927Z,57.34
2017-10-25T04:11:17.170Z,57.34
2017-10-25T04:13:43.774Z,57.31
2017-10-25T04:16:09.504Z,57.44
2017-10-25T04:18:35.243Z,57.35
2017-10-25T04:21:02.000Z,58.33
2017-10-25T04:23:27.741Z,58.22
2017-10-25T04:25:53.476Z,58.18
2017-10-25T04:28:19.211Z,58.72
2017-10-25T04:30:45.908Z,58.69
2017-10-25T04:33:11.647Z,58.76
2017-10-25T04:35:37.375Z,58.40
2017-10-25T04:38:03.167Z,58.10
2017-10-25T04:40:28.918Z,58.67
2017-10-25T04:42:55.695Z,58.93
2017-10-25T04:45:21.423Z,58.66
2017-10-25T04:47:47.150Z,58.69
2017-10-25T04:50:12.881Z,58.39
2017-10-25T04:52:38.666Z,58.55
2017-10-25T04:55:04.408Z,58.71
2017-10-25T04:57:30.153Z,58.83
2017-10-25T04:59:55.939Z,58.83
2017-10-25T05:02:21.687Z,58.81
2017-10-25T05:04:47.427Z,58.92
2017-10-25T05:07:13.162Z,59.10
2017-10-25T05:09:38.907Z,58.25
2017-10-25T05:12:04.638Z,58.87
2017-10-25T05:14:30.383Z,59.15
2017-10-25T05:16:56.124Z,58.91
2017-10-25T05:19:21.868Z,58.81
2017-10-25T05:21:47.607Z,58.93
2017-10-25T05:24:13.355Z,59.17
2017-10-25T05:26:39.916Z,58.75
2017-10-25T05:29:05.983Z,59.24
2017-10-25T05:31:32.583Z,59.21
2017-10-25T05:33:59.315Z,58.83
2017-10-25T05:36:25.879Z,59.08
2017-10-25T05:38:51.619Z,58.96
2017-10-25T05:41:18.337Z,58.85
2017-10-25T05:43:44.079Z,58.20
2017-10-25T05:46:09.816Z,58.38
2017-10-25T05:48:36.495Z,58.51
2017-10-25T05:51:03.357Z,58.99
2017-10-25T05:53:30.018Z,58.54
2017-10-25T05:55:55.763Z,58.88
2017-10-25T05:58:22.602Z,58.62
2017-10-25T06:00:48.354Z,59.09
2017-10-25T06:03:15.060Z,59.04
2017-10-25T06:05:40.841Z,58.55
2017-10-25T06:08:06.580Z,59.08
2017-10-25T06:10:32.883Z,59.08
2017-10-25T06:12:58.660Z,59.34
2017-10-25T06:15:25.232Z,58.82
2017-10-25T06:17:51.903Z,58.47
2017-10-25T06:20:18.627Z,59.08
2017-10-25T06:22:45.371Z,59.17
2017-10-25T06:25:12.153Z,59.33
2017-10-25T06:27:38.863Z,58.56
2017-10-25T06:30:04.647Z,59.10
2017-10-25T06:32:30.389Z,58.07
2017-10-25T06:34:56.156Z,58.65
2017-10-25T06:37:21.909Z,58.73
2017-10-25T06:39:47.666Z,58.62
2017-10-25T06:42:14.207Z,58.59
2017-10-25T06:44:40.935Z,59.21
2017-10-25T06:47:06.831Z,58.55
2017-10-25T06:49:33.436Z,58.30
2017-10-25T06:51:59.187Z,58.27
2017-10-25T06:54:25.797Z,58.30
2017-10-25T06:56:51.541Z,57.91
2017-10-25T06:59:18.073Z,58.09
2017-10-25T07:01:44.799Z,58.06
2017-10-25T07:04:11.495Z,58.22
2017-10-25T07:06:37.234Z,58.44
2017-10-25T07:09:04.034Z,58.33
2017-10-25T07:11:30.764Z,58.43
2017-10-25T07:13:56.639Z,58.36
2017-10-25T07:16:22.389Z,58.83
2017-10-25T07:18:48.133Z,59.00
2017-10-25T07:21:13.911Z,59.16
2017-10-25T07:23:39.660Z,58.67
2017-10-25T07:26:05.447Z,58.84
2017-10-25T07:28:31.194Z,58.83
2017-10-25T07:30:57.801Z,58.87
2017-10-25T07:33:23.541Z,58.67
2017-10-25T07:35:50.285Z,58.82
2017-10-25T07:38:16.045Z,58.93
2017-10-25T07:40:42.803Z,58.76
2017-10-25T07:43:08.548Z,58.93
2017-10-25T07:45:35.266Z,58.83
2017-10-25T07:48:01.940Z,58.75
2017-10-25T07:50:28.599Z,58.75
2017-10-25T07:52:54.330Z,58.38
2017-10-25T07:55:21.025Z,58.57
2017-10-25T07:57:46.771Z,58.67
2017-10-25T08:00:12.511Z,59.16
2017-10-25T08:02:39.224Z,59.07
2017-10-25T08:05:04.964Z,59.31
2017-10-25T08:07:30.699Z,59.20
2017-10-25T08:09:56.432Z,58.78
2017-10-25T08:12:22.190Z,59.01
2017-10-25T08:14:47.927Z,58.85
2017-10-25T08:17:13.659Z,58.84
2017-10-25T08:19:39.431Z,59.23
2017-10-25T08:22:05.177Z,59.12
2017-10-25T08:24:30.911Z,59.01
2017-10-25T08:26:56.660Z,58.96
2017-10-25T08:29:22.576Z,59.09
2017-10-25T08:31:48.399Z,58.87
2017-10-25T08:34:14.203Z,58.77
2017-10-25T08:36:39.970Z,59.22
2017-10-25T08:39:06.789Z,58.94
2017-10-25T08:41:33.015Z,58.79
2017-10-25T08:43:59.695Z,58.94
2017-10-25T08:46:25.560Z,58.86
2017-10-25T08:48:51.311Z,59.02
2017-10-25T08:51:17.055Z,59.32
2017-10-25T08:53:43.612Z,58.95
2017-10-25T08:56:09.372Z,58.97
2017-10-25T08:58:35.119Z,59.13
2017-10-25T09:01:00.896Z,59.16
2017-10-25T09:03:27.684Z,59.14
2017-10-25T09:05:53.426Z,59.21
2017-10-25T09:08:19.274Z,59.13
2017-10-25T09:10:45.012Z,59.15
2017-10-25T09:13:10.751Z,59.18
2017-10-25T09:15:36.635Z,59.02
2017-10-25T09:18:03.700Z,59.03
2017-10-25T09:20:29.453Z,58.82
2017-10-25T09:22:55.361Z,59.53
2017-10-25T09:25:21.095Z,59.41
2017-10-25T09:27:46.826Z,59.29
2017-10-25T09:30:12.571Z,59.14
2017-10-25T09:32:38.388Z,59.21
2017-10-25T09:35:04.167Z,59.37
2017-10-25T09:37:30.794Z,59.30
2017-10-25T09:39:56.547Z,59.06
2017-10-25T09:42:22.294Z,59.18
2017-10-25T09:44:48.045Z,59.03
2017-10-25T09:47:13.832Z,58.98
2017-10-25T09:49:39.578Z,58.94
2017-10-25T09:52:06.332Z,59.29
2017-10-25T09:54:32.726Z,58.95
2017-10-25T09:56:58.468Z,58.95
2017-10-25T09:59:24.260Z,58.62
2017-10-25T10:01:50.832Z,58.28
2017-10-25T10:04:16.631Z,57.76
2017-10-25T10:06:43.198Z,57.67
2017-10-25T10:09:08.936Z,57.43
2017-10-25T10:11:34.684Z,57.80
2017-10-25T10:14:00.467Z,57.89
2017-10-25T10:16:27.194Z,58.05
2017-10-25T10:18:53.954Z,57.62
2017-10-25T10:21:19.687Z,57.65
2017-10-25T10:23:45.475Z,58.16
2017-10-25T10:26:11.895Z,57.90
2017-10-25T10:28:37.643Z,57.82
2017-10-25T10:31:03.482Z,58.12
2017-10-25T10:33:30.226Z,57.67
2017-10-25T10:35:56.047Z,58.08
2017-10-25T10:38:22.791Z,57.98
2017-10-25T10:40:48.586Z,57.89
2017-10-25T10:43:14.343Z,58.07
2017-10-25T10:45:40.084Z,58.29
2017-10-25T10:48:06.731Z,58.19
2017-10-25T10:50:33.281Z,58.48
2017-10-25T10:52:59.019Z,58.25
2017-10-25T10:55:24.755Z,58.33
2017-10-25T10:57:51.536Z,58.02
2017-10-25T11:00:18.583Z,58.18
2017-10-25T11:02:45.305Z,58.45
2017-10-25T11:05:12.005Z,58.60
2017-10-25T11:07:37.765Z,58.36
2017-10-25T11:10:04.352Z,58.30
2017-10-25T11:12:30.105Z,58.31
2017-10-25T11:14:56.891Z,58.34
2017-10-25T11:17:23.084Z,58.44
2017-10-25T11:19:48.822Z,58.49
2017-10-25T11:22:15.456Z,58.38
2017-10-25T11:24:42.208Z,58.74
2017-10-25T11:27:08.929Z,58.51
2017-10-25T11:29:34.696Z,58.46
2017-10-25T11:32:00.463Z,58.53
2017-10-25T11:34:26.204Z,58.52
2017-10-25T11:36:52.975Z,58.40
2017-10-25T11:39:18.784Z,58.58
2017-10-25T11:41:45.421Z,58.50
2017-10-25T11:44:11.157Z,58.40
2017-10-25T11:46:36.919Z,58.53
2017-10-25T11:49:03.726Z,58.36
2017-10-25T11:51:30.376Z,58.51
2017-10-25T11:53:56.126Z,58.41
2017-10-25T11:56:21.867Z,58.60
2017-10-25T11:58:48.601Z,58.26
2017-10-25T12:01:15.323Z,58.53
2017-10-25T12:03:41.108Z,58.43
2017-10-25T12:06:07.939Z,58.45
2017-10-25T12:08:33.688Z,58.21
2017-10-25T12:11:00.496Z,58.17
2017-10-25T12:13:26.231Z,58.31
2017-10-25T12:15:52.922Z,58.41
2017-10-25T12:18:18.666Z,58.55
2017-10-25T12:20:45.327Z,58.26
2017-10-25T12:23:11.068Z,58.35
2017-10-25T12:25:36.883Z,58.38
2017-10-25T12:28:03.527Z,58.54
2017-10-25T12:30:29.274Z,58.47
2017-10-25T12:32:55.015Z,58.47
2017-10-25T12:35:20.764Z,58.62
2017-10-25T12:37:46.733Z,58.51
2017-10-25T12:40:12.609Z,58.26
2017-10-25T12:42:38.352Z,58.35
2017-10-25T12:45:04.244Z,58.41
2017-10-25T12:47:29.995Z,58.25
2017-10-25T12:49:55.749Z,58.47
2017-10-25T12:52:21.519Z,58.49
2017-10-25T12:54:47.256Z,58.46
2017-10-25T12:57:13.003Z,58.43
2017-10-25T12:59:39.584Z,58.45
2017-10-25T13:02:06.187Z,58.23
2017-10-25T13:04:31.929Z,58.28
2017-10-25T13:06:57.684Z,58.15
2017-10-25T13:09:23.432Z,58.27
2017-10-25T13:12:05.509Z,58.39
2017-10-25T13:14:48.836Z,58.70
2017-10-25T13:17:20.565Z,58.82
2017-10-25T13:19:46.377Z,58.73
2017-10-25T13:22:12.120Z,58.49
2017-10-25T13:24:38.778Z,58.54
2017-10-25T13:27:04.524Z,58.28
2017-10-25T13:29:30.277Z,58.58
2017-10-25T13:31:56.032Z,58.48
2017-10-25T13:34:21.790Z,58.64
2017-10-25T13:36:47.599Z,58.41
2017-10-25T13:39:14.250Z,58.37
2017-10-25T13:41:40.936Z,58.30
2017-10-25T13:44:06.688Z,57.83
2017-10-25T13:46:33.387Z,57.42
2017-10-25T13:48:59.149Z,57.21
2017-10-25T13:51:24.907Z,56.90
2017-10-25T13:53:50.655Z,57.46
2017-10-25T13:56:16.442Z,58.35
2017-10-25T13:58:42.198Z,58.07
2017-10-25T14:01:08.087Z,58.38
2017-10-25T14:03:33.836Z,57.20
2017-10-25T14:05:59.584Z,57.94
2017-10-25T14:08:25.351Z,58.20
2017-10-25T14:10:51.887Z,58.33
2017-10-25T14:13:17.651Z,58.00
2017-10-25T14:15:45.008Z,58.31
2017-10-25T14:18:10.962Z,58.39
2017-10-25T14:20:37.466Z,58.57
2017-10-25T14:23:03.853Z,58.28
2017-10-25T14:25:29.756Z,58.73
2017-10-25T14:28:01.710Z,58.64
2017-10-25T14:30:28.568Z,58.14
2017-10-25T14:32:55.272Z,58.22
2017-10-25T14:35:22.140Z,58.24
2017-10-25T14:37:47.883Z,58.42
2017-10-25T14:40:14.575Z,57.95
2017-10-25T14:42:41.274Z,57.84
2017-10-25T14:45:07.023Z,58.01
2017-10-25T14:47:32.764Z,58.17
2017-10-25T14:49:58.514Z,58.35
2017-10-25T14:52:24.292Z,58.22
2017-10-25T14:54:50.053Z,57.88
2017-10-25T14:57:15.800Z,58.29
2017-10-25T14:59:41.585Z,58.60
2017-10-25T15:02:07.357Z,58.27
2017-10-25T15:04:33.111Z,58.12
2017-10-25T15:06:58.856Z,57.90
2017-10-25T15:09:24.652Z,58.07
2017-10-25T15:11:50.407Z,58.48
2017-10-25T15:14:16.964Z,58.52
2017-10-25T15:16:42.712Z,58.47
2017-10-25T15:19:08.512Z,58.28
2017-10-25T15:21:34.264Z,58.04
2017-10-25T15:24:00.021Z,58.26
2017-10-25T15:26:25.762Z,57.89
2017-10-25T15:28:51.517Z,57.87
2017-10-25T15:31:17.269Z,58.04
2017-10-25T15:33:43.049Z,58.00
2017-10-25T15:36:08.869Z,57.99
2017-10-25T15:38:34.609Z,57.70
2017-10-25T15:41:00.360Z,57.83
2017-10-25T15:43:26.111Z,58.01
2017-10-25T15:45:51.935Z,57.92
2017-10-25T15:48:17.680Z,58.11
2017-10-25T15:50:43.580Z,58.08
2017-10-25T15:53:10.300Z,58.18
2017-10-25T15:55:37.007Z,58.29
2017-10-25T15:58:03.680Z,58.35
2017-10-25T16:00:30.748Z,58.03
2017-10-25T16:02:57.500Z,58.40
2017-10-25T16:05:24.218Z,58.66
2017-10-25T16:07:49.955Z,58.63
2017-10-25T16:10:16.445Z,58.47
2017-10-25T16:12:43.064Z,58.59
2017-10-25T16:15:08.817Z,58.56
2017-10-25T16:17:34.567Z,58.91
2017-10-25T16:20:00.314Z,58.74
2017-10-25T16:22:26.395Z,58.56
2017-10-25T16:24:52.241Z,58.61
2017-10-25T16:27:18.020Z,58.52
2017-10-25T16:29:43.755Z,58.44
2017-10-25T16:32:09.492Z,58.25
2017-10-25T16:34:36.070Z,58.02
2017-10-25T16:37:01.824Z,58.23
2017-10-25T16:39:27.569Z,58.46
2017-10-25T16:41:53.314Z,58.42
2017-10-25T16:44:19.053Z,58.30
2017-10-25T16:46:44.787Z,58.14
2017-10-25T16:49:10.529Z,58.44
2017-10-25T16:51:36.276Z,58.34
2017-10-25T16:54:02.027Z,58.52
2017-10-25T16:56:27.768Z,58.41
2017-10-25T16:58:53.560Z,57.68
2017-10-25T17:01:19.323Z,57.91
2017-10-25T17:03:45.076Z,57.44
2017-10-25T17:06:10.844Z,56.97
2017-10-25T17:08:36.581Z,56.70
2017-10-25T17:11:02.368Z,56.85
2017-10-25T17:13:28.102Z,56.81
2017-10-25T17:15:53.835Z,56.63
2017-10-25T17:18:20.412Z,56.74
2017-10-25T17:20:46.156Z,56.76
2017-10-25T17:23:11.904Z,56.73
2017-10-25T17:25:38.539Z,57.03
2017-10-25T17:28:04.288Z,57.26
2017-10-25T17:30:30.042Z,57.51
2017-10-25T17:32:55.800Z,57.12
2017-10-25T17:35:21.543Z,57.42
2017-10-25T17:37:47.364Z,57.69
2017-10-25T17:40:13.114Z,57.68
2017-10-25T17:42:38.852Z,57.45
2017-10-25T17:45:04.593Z,57.68
2017-10-25T17:47:30.334Z,57.33
2017-10-25T17:49:56.111Z,57.66
2017-10-25T17:52:21.855Z,57.72
2017-10-25T17:54:47.635Z,58.07
2017-10-25T17:57:13.379Z,58.13
2017-10-25T17:59:39.165Z,58.07
2017-10-25T18:02:04.911Z,58.29
2017-10-25T18:04:30.657Z,58.43
2017-10-25T18:06:56.449Z,58.38
2017-10-25T18:09:22.194Z,58.35
2017-10-25T18:11:47.935Z,58.43
2017-10-25T18:14:16.440Z,58.42
2017-10-25T18:16:44.328Z,59.00
2017-10-25T18:19:10.059Z,59.17
2017-10-25T18:21:35.869Z,58.28
2017-10-25T18:24:01.661Z,59.01
2017-10-25T18:26:27.455Z,58.80
2017-10-25T18:28:53.202Z,58.93
2017-10-25T18:31:18.952Z,58.78
2017-10-25T18:33:44.856Z,58.62
2017-10-25T18:36:10.605Z,58.35
2017-10-25T18:38:36.353Z,58.89
2017-10-25T18:41:02.822Z,58.87
2017-10-25T18:43:28.640Z,59.14
2017-10-25T18:45:54.439Z,59.12
2017-10-25T18:48:20.199Z,59.02
2017-10-25T18:50:45.944Z,58.98
2017-10-25T18:53:13.951Z,58.86
2017-10-25T18:55:39.705Z,58.98
2017-10-25T18:58:06.265Z,59.47
2017-10-25T19:00:32.003Z,58.65
2017-10-25T19:02:58.008Z,58.30
2017-10-25T19:05:23.769Z,58.00
2017-10-25T19:07:49.531Z,57.55
2017-10-25T19:10:15.326Z,57.69
2017-10-25T19:12:41.076Z,57.47
2017-10-25T19:15:06.834Z,57.25
2017-10-25T19:17:32.584Z,57.41
2017-10-25T19:19:58.320Z,57.23
2017-10-25T19:22:24.067Z,57.55
2017-10-25T19:24:50.594Z,57.68
2017-10-25T19:27:17.272Z,57.85
2017-10-25T19:29:43.051Z,58.15
2017-10-25T19:32:08.835Z,58.21
2017-10-25T19:34:34.588Z,57.94
2017-10-25T19:37:00.385Z,58.34
2017-10-25T19:39:26.262Z,58.39
2017-10-25T19:41:52.005Z,58.28
2017-10-25T19:44:19.851Z,58.01
2017-10-25T19:46:45.773Z,58.42
2017-10-25T19:49:11.528Z,58.53
2017-10-25T19:51:37.428Z,58.17
2017-10-25T19:54:03.167Z,58.17
2017-10-25T19:56:29.532Z,58.60
2017-10-25T19:58:55.322Z,58.64
2017-10-25T20:01:21.225Z,58.74
2017-10-25T20:03:46.973Z,58.96
2017-10-25T20:06:12.783Z,58.71
2017-10-25T20:08:38.536Z,58.67
2017-10-25T20:11:04.268Z,58.73
2017-10-25T20:13:30.115Z,58.32
2017-10-25T20:15:55.856Z,58.35
2017-10-25T20:18:21.606Z,58.73
2017-10-25T20:20:47.341Z,58.51
2017-10-25T20:23:13.114Z,59.13
2017-10-25T20:25:38.863Z,59.06
2017-10-25T20:28:04.749Z,59.26
2017-10-25T20:30:30.720Z,59.47
2017-10-25T20:32:56.563Z,58.90
2017-10-25T20:35:22.317Z,59.08
2017-10-25T20:37:48.065Z,58.71
2017-10-25T20:40:14.621Z,59.30
2017-10-25T20:42:40.408Z,59.32
2017-10-25T20:45:06.145Z,59.49
2017-10-25T20:47:32.258Z,59.35
2017-10-25T20:49:58.123Z,59.62
2017-10-25T20:52:23.882Z,58.88
2017-10-25T20:54:49.631Z,58.90
2017-10-25T20:57:15.476Z,59.25
2017-10-25T20:59:41.244Z,58.73
2017-10-25T21:02:06.995Z,59.09
2017-10-25T21:04:32.840Z,59.10
2017-10-25T21:06:58.660Z,59.66
2017-10-25T21:09:24.440Z,58.91
2017-10-25T21:11:50.182Z,59.47
2017-10-25T21:14:15.923Z,59.47
2017-10-25T21:16:41.723Z,59.25
2017-10-25T21:19:07.499Z,59.52
2017-10-25T21:21:33.236Z,59.10
2017-10-25T21:23:59.987Z,59.50
2017-10-25T21:26:25.735Z,59.16
2017-10-25T21:28:51.484Z,59.75
2017-10-25T21:31:17.224Z,59.59
2017-10-25T21:33:43.115Z,59.79
2017-10-25T21:36:23.857Z,59.35
2017-10-25T21:38:49.610Z,59.93
2017-10-25T21:41:15.359Z,59.48
2017-10-25T21:43:41.096Z,59.19
2017-10-25T21:46:06.884Z,59.70
2017-10-25T21:48:32.628Z,58.77
2017-10-25T21:50:58.364Z,59.00
2017-10-25T21:53:24.103Z,59.30
2017-10-25T21:55:49.840Z,59.14
2017-10-25T21:58:15.586Z,59.28
2017-10-25T22:00:41.324Z,58.90
2017-10-25T22:03:07.056Z,59.70
2017-10-25T22:05:32.880Z,59.21
2017-10-25T22:07:58.612Z,59.62
2017-10-25T22:10:24.347Z,58.68
2017-10-25T22:12:50.087Z,58.77
2017-10-25T22:15:15.832Z,59.50
2017-10-25T22:17:41.575Z,59.42
2017-10-25T22:20:07.348Z,59.48
2017-10-25T22:22:33.096Z,58.79
2017-10-25T22:25:00.737Z,59.37
2017-10-25T22:27:27.487Z,59.25
2017-10-25T22:29:54.272Z,58.96
2017-10-25T22:32:21.031Z,58.49
2017-10-25T22:34:46.777Z,58.75
2017-10-25T22:37:12.520Z,58.63
2017-10-25T22:39:38.291Z,59.17
2017-10-25T22:42:04.851Z,59.20
2017-10-25T22:44:31.515Z,58.46
2017-10-25T22:46:58.232Z,59.14
2017-10-25T22:49:24.957Z,59.02
2017-10-25T22:51:50.701Z,59.18
2017-10-25T22:54:17.380Z,58.09
2017-10-25T22:56:43.928Z,58.58
2017-10-25T22:59:10.623Z,59.10
2017-10-25T23:01:37.315Z,59.21
2017-10-25T23:04:03.130Z,58.74
2017-10-25T23:06:30.820Z,58.93
2017-10-25T23:08:56.568Z,58.62
2017-10-25T23:11:22.308Z,58.64
2017-10-25T23:13:49.001Z,59.04
2017-10-25T23:16:15.731Z,58.56
2017-10-25T23:18:41.476Z,58.00
2017-10-25T23:21:08.228Z,58.88
2017-10-25T23:23:34.000Z,59.09
2017-10-25T23:26:01.883Z,58.33
2017-10-25T23:28:27.633Z,58.01
2017-10-25T23:30:53.716Z,57.51
2017-10-25T23:33:19.460Z,57.52
2017-10-25T23:35:45.339Z,57.27
2017-10-25T23:38:11.077Z,57.36
2017-10-25T23:40:37.923Z,57.37
2017-10-25T23:43:03.668Z,57.50
2017-10-25T23:45:29.404Z,57.25
2017-10-25T23:47:55.139Z,57.71
2017-10-25T23:50:21.815Z,57.06
2017-10-25T23:52:47.596Z,58.74
2017-10-25T23:55:14.195Z,58.24
2017-10-25T23:57:39.935Z,58.76
